createdAt,value
2017-02-09T08:28:57.603Z,960.00
2017-02-09T08:29:15.599Z,960.02
2017-02-09T08:30:12.988Z,959.96
2017-02-09T08:31:13.011Z,959.97
2017-02-09T08:32:14.027Z,959.92
2017-02-09T08:33:14.179Z,959.91
2017-02-09T08:34:13.417Z,959.88
2017-02-09T08:35:12.976Z,959.86
2017-02-09T08:36:13.203Z,959.86
2017-02-09T08:37:13.495Z,959.91
2017-02-09T08:38:13.528Z,959.86
2017-02-09T08:39:13.725Z,959.87
2017-02-09T08:40:14.076Z,959.89
2017-02-09T08:41:15.210Z,959.90
2017-02-09T08:42:14.421Z,959.90
2017-02-09T08:43:14.059Z,959.85
2017-02-09T08:44:13.431Z,959.84
2017-02-09T08:45:13.909Z,959.85
2017-02-09T08:46:13.529Z,959.81
2017-02-09T08:47:14.005Z,959.86
2017-02-09T08:48:13.529Z,959.85
2017-02-09T08:49:14.849Z,959.85
2017-02-09T08:50:13.398Z,959.88
2017-02-09T08:51:13.946Z,959.88
2017-02-09T08:52:15.188Z,959.88
2017-02-09T08:53:13.541Z,959.89
2017-02-09T08:54:14.986Z,959.90
2017-02-09T08:55:13.200Z,959.89
2017-02-09T08:56:13.674Z,959.85
2017-02-09T08:57:13.356Z,959.81
2017-02-09T08:58:14.479Z,959.83
2017-02-09T08:59:10.404Z,959.82
2017-02-09T09:00:13.740Z,959.81
2017-02-09T09:01:13.456Z,959.83
2017-02-09T09:02:14.240Z,959.82
2017-02-09T09:03:15.428Z,959.83
2017-02-09T09:04:15.431Z,959.80
2017-02-09T09:05:15.295Z,959.81
2017-02-09T09:06:13.824Z,959.80
2017-02-09T09:07:13.494Z,959.78
2017-02-09T09:08:13.524Z,959.82
2017-02-09T09:09:14.606Z,959.81
2017-02-09T09:10:15.547Z,959.78
2017-02-09T09:11:14.233Z,959.75
2017-02-09T09:12:14.173Z,959.78
2017-02-09T09:13:14.282Z,959.74
2017-02-09T09:14:14.891Z,959.78
2017-02-09T09:15:13.236Z,959.74
2017-02-09T09:16:13.191Z,959.77
2017-02-09T09:17:14.535Z,959.77
2017-02-09T09:18:14.460Z,959.72
2017-02-09T09:19:15.126Z,959.70
2017-02-09T09:20:16.085Z,959.70
2017-02-09T09:21:14.222Z,959.68
2017-02-09T09:22:14.945Z,959.69
2017-02-09T09:23:13.957Z,959.66
2017-02-09T09:24:14.184Z,959.69
2017-02-09T09:25:10.162Z,959.72
2017-02-09T09:26:13.964Z,959.69
2017-02-09T09:27:13.044Z,959.70
2017-02-09T09:28:13.153Z,959.69
2017-02-09T09:29:13.607Z,959.72
2017-02-09T09:30:11.333Z,959.71
2017-02-09T09:31:14.367Z,959.65
2017-02-09T09:32:13.702Z,959.67
2017-02-09T09:33:12.718Z,959.64
2017-02-09T09:34:14.651Z,959.65
2017-02-09T09:35:14.532Z,959.60
2017-02-09T09:36:13.322Z,959.61
2017-02-09T09:37:13.039Z,959.61
2017-02-09T09:38:12.101Z,959.60
2017-02-09T09:39:13.885Z,959.57
2017-02-09T09:40:13.951Z,959.58
2017-02-09T09:41:14.254Z,959.57
2017-02-09T09:42:14.007Z,959.58
2017-02-09T09:43:14.304Z,959.59
2017-02-09T09:44:12.237Z,959.61
2017-02-09T09:45:13.074Z,959.63
2017-02-09T09:46:12.053Z,959.63
2017-02-09T09:47:10.741Z,959.64
2017-02-09T09:48:13.223Z,959.63
2017-02-09T09:49:13.211Z,959.65
2017-02-09T09:50:13.015Z,959.65
2017-02-09T09:51:13.908Z,959.64
2017-02-09T09:52:13.917Z,959.60
2017-02-09T09:53:13.432Z,959.64
2017-02-09T09:54:12.906Z,959.58
2017-02-09T09:55:14.327Z,959.64
2017-02-09T09:56:14.120Z,959.61
2017-02-09T09:57:11.013Z,959.58
2017-02-09T09:58:11.013Z,959.60
2017-02-09T09:59:12.854Z,959.60
2017-02-09T10:00:12.427Z,959.62
2017-02-09T10:01:14.877Z,959.59
2017-02-09T10:02:13.199Z,959.62
2017-02-09T10:03:13.909Z,959.60
2017-02-09T10:04:12.667Z,959.61
2017-02-09T10:05:11.935Z,959.56
2017-02-09T10:06:14.617Z,959.59
2017-02-09T10:07:13.631Z,959.57
2017-02-09T10:08:13.540Z,959.52
2017-02-09T10:09:12.587Z,959.54
2017-02-09T10:10:11.301Z,959.54
2017-02-09T10:11:12.997Z,959.52
2017-02-09T10:12:13.658Z,959.48
2017-02-09T10:13:13.992Z,959.52
2017-02-09T10:14:12.016Z,959.48
2017-02-09T10:15:13.221Z,959.53
2017-02-09T10:16:12.844Z,959.56
2017-02-09T10:17:13.902Z,959.48
2017-02-09T10:18:13.534Z,959.54
2017-02-09T10:19:14.583Z,959.51
2017-02-09T10:20:14.352Z,959.52
2017-02-09T10:21:12.837Z,959.58
2017-02-09T10:22:12.808Z,959.56
2017-02-09T10:23:13.768Z,959.54
2017-02-09T10:24:13.380Z,959.55
2017-02-09T10:25:13.501Z,959.54
2017-02-09T10:26:13.672Z,959.53
2017-02-09T10:27:14.603Z,959.56
2017-02-09T10:28:12.944Z,959.52
2017-02-09T10:29:13.417Z,959.52
2017-02-09T10:30:12.385Z,959.54
2017-02-09T10:31:13.241Z,959.50
2017-02-09T10:32:13.087Z,959.52
2017-02-09T10:33:14.614Z,959.49
2017-02-09T10:34:14.823Z,959.49
2017-02-09T10:35:12.224Z,959.45
2017-02-09T10:36:15.169Z,959.43
2017-02-09T10:37:14.720Z,959.43
2017-02-09T10:38:14.762Z,959.43
2017-02-09T10:39:11.568Z,959.39
2017-02-09T10:40:12.535Z,959.35
2017-02-09T10:41:13.393Z,959.37
2017-02-09T10:42:11.972Z,959.38
2017-02-09T10:43:13.479Z,959.43
2017-02-09T10:44:13.412Z,959.41
2017-02-09T10:45:14.148Z,959.42
2017-02-09T10:46:11.804Z,959.45
2017-02-09T10:47:14.087Z,959.42
2017-02-09T10:48:12.810Z,959.39
2017-02-09T10:49:12.940Z,959.43
2017-02-09T10:50:12.413Z,959.38
2017-02-09T10:51:14.126Z,959.39
2017-02-09T10:52:12.755Z,959.34
2017-02-09T10:53:13.327Z,959.35
2017-02-09T10:54:13.343Z,959.31
2017-02-09T10:55:13.179Z,959.28
2017-02-09T10:56:13.104Z,959.25
2017-02-09T10:57:12.753Z,959.25
2017-02-09T10:58:13.994Z,959.31
2017-02-09T10:59:12.803Z,959.26
2017-02-09T11:00:12.594Z,959.28
2017-02-09T11:01:13.185Z,959.20
2017-02-09T11:02:12.575Z,959.20
2017-02-09T11:03:16.400Z,959.26
2017-02-09T11:04:14.034Z,959.24
2017-02-09T11:05:13.152Z,959.18
2017-02-09T11:06:14.772Z,959.20
2017-02-09T11:07:13.383Z,959.14
2017-02-09T11:08:13.372Z,959.10
2017-02-09T11:09:14.611Z,959.11
2017-02-09T11:10:14.543Z,959.07
2017-02-09T11:11:11.091Z,959.02
2017-02-09T11:12:13.399Z,959.00
2017-02-09T11:13:14.000Z,959.06
2017-02-09T11:14:12.839Z,959.06
2017-02-09T11:15:12.744Z,959.02
2017-02-09T11:16:12.516Z,959.02
2017-02-09T11:17:15.089Z,959.05
2017-02-09T11:18:13.773Z,959.01
2017-02-09T11:19:13.229Z,958.99
2017-02-09T11:20:14.872Z,958.96
2017-02-09T11:21:14.705Z,958.93
2017-02-09T11:22:14.387Z,958.95
2017-02-09T11:23:14.334Z,958.95
2017-02-09T11:24:14.017Z,958.94
2017-02-09T11:25:12.831Z,958.98
2017-02-09T11:26:13.446Z,958.98
2017-02-09T11:27:15.361Z,958.98
2017-02-09T11:28:13.448Z,958.99
2017-02-09T11:29:13.198Z,958.96
2017-02-09T11:30:12.816Z,958.94
2017-02-09T11:31:13.389Z,958.98
2017-02-09T11:32:12.894Z,958.92
2017-02-09T11:33:12.230Z,958.92
2017-02-09T11:34:12.596Z,958.95
2017-02-09T11:35:14.080Z,958.91
2017-02-09T11:36:13.513Z,958.94
2017-02-09T11:37:14.840Z,958.92
2017-02-09T11:38:11.818Z,958.88
2017-02-09T11:39:12.800Z,958.90
2017-02-09T11:40:12.729Z,958.88
2017-02-09T11:41:12.364Z,958.90
2017-02-09T11:42:10.476Z,958.94
2017-02-09T11:43:13.317Z,958.91
2017-02-09T11:44:13.079Z,958.92
2017-02-09T11:45:12.599Z,958.87
2017-02-09T11:46:12.615Z,958.85
2017-02-09T11:47:13.358Z,958.87
2017-02-09T11:48:13.597Z,958.85
2017-02-09T11:49:13.355Z,958.80
2017-02-09T11:50:13.428Z,958.80
2017-02-09T11:51:13.596Z,958.84
2017-02-09T11:52:12.461Z,958.82
2017-02-09T11:53:14.320Z,958.80
2017-02-09T11:54:13.153Z,958.72
2017-02-09T11:55:12.831Z,958.73
2017-02-09T11:56:11.842Z,958.73
2017-02-09T11:57:09.435Z,958.72
2017-02-09T11:58:14.229Z,958.69
2017-02-09T11:59:12.108Z,958.72
2017-02-09T12:00:13.139Z,958.68
2017-02-09T12:01:13.221Z,958.72
2017-02-09T12:02:12.656Z,958.67
2017-02-09T12:03:13.332Z,958.69
2017-02-09T12:04:14.483Z,958.69
2017-02-09T12:05:13.404Z,958.68
2017-02-09T12:06:12.422Z,958.74
2017-02-09T12:07:13.235Z,958.63
2017-02-09T12:08:13.065Z,958.71
2017-02-09T12:09:11.975Z,958.68
2017-02-09T12:10:11.888Z,958.70
2017-02-09T12:11:13.134Z,958.70
2017-02-09T12:12:12.916Z,958.70
2017-02-09T12:13:09.427Z,958.70
2017-02-09T12:14:12.853Z,958.67
2017-02-09T12:15:12.291Z,958.74
2017-02-09T12:16:12.618Z,958.70
2017-02-09T12:17:13.001Z,958.71
2017-02-09T12:18:12.575Z,958.65
2017-02-09T12:19:14.006Z,958.65
2017-02-09T12:20:11.958Z,958.67
2017-02-09T12:21:11.865Z,958.61
2017-02-09T12:22:12.612Z,958.66
2017-02-09T12:23:12.735Z,958.65
2017-02-09T12:24:13.478Z,958.67
2017-02-09T12:25:12.455Z,958.58
2017-02-09T12:26:12.981Z,958.58
2017-02-09T12:27:12.865Z,958.58
2017-02-09T12:28:12.053Z,958.55
2017-02-09T12:29:13.732Z,958.56
2017-02-09T12:30:13.462Z,958.52
2017-02-09T12:31:12.485Z,958.52
2017-02-09T12:32:10.716Z,958.50
2017-02-09T12:33:13.545Z,958.49
2017-02-09T12:34:11.143Z,958.47
2017-02-09T12:35:12.850Z,958.47
2017-02-09T12:36:11.732Z,958.42
2017-02-09T12:37:12.058Z,958.45
2017-02-09T12:38:12.048Z,958.40
2017-02-09T12:39:13.017Z,958.41
2017-02-09T12:40:13.035Z,958.40
2017-02-09T12:41:12.028Z,958.41
2017-02-09T12:42:12.928Z,958.36
2017-02-09T12:43:12.490Z,958.39
2017-02-09T12:44:13.158Z,958.37
2017-02-09T12:45:13.921Z,958.35
2017-02-09T12:46:13.547Z,958.40
2017-02-09T12:47:11.097Z,958.37
2017-02-09T12:48:14.001Z,958.37
2017-02-09T12:49:14.566Z,958.39
2017-02-09T12:50:10.764Z,958.40
2017-02-09T12:51:12.541Z,958.39
2017-02-09T12:52:12.603Z,958.37
2017-02-09T12:53:12.591Z,958.36
2017-02-09T12:54:13.879Z,958.33
2017-02-09T12:55:13.444Z,958.35
2017-02-09T12:56:12.834Z,958.31
2017-02-09T12:57:12.402Z,958.32
2017-02-09T12:58:12.413Z,958.32
2017-02-09T12:59:12.424Z,958.32
2017-02-09T13:00:14.312Z,958.33
2017-02-09T13:01:13.881Z,958.30
2017-02-09T13:02:12.419Z,958.32
2017-02-09T13:03:12.408Z,958.35
2017-02-09T13:04:15.473Z,958.36
2017-02-09T13:05:13.220Z,958.34
2017-02-09T13:06:12.507Z,958.31
2017-02-09T13:07:13.278Z,958.31
2017-02-09T13:08:13.084Z,958.35
2017-02-09T13:09:12.182Z,958.26
2017-02-09T13:10:12.234Z,958.27
2017-02-09T13:11:13.155Z,958.27
2017-02-09T13:12:12.189Z,958.30
2017-02-09T13:13:12.144Z,958.24
2017-02-09T13:14:12.081Z,958.26
2017-02-09T13:15:12.429Z,958.27
2017-02-09T13:16:13.681Z,958.23
2017-02-09T13:17:13.286Z,958.21
2017-02-09T13:18:10.965Z,958.21
2017-02-09T13:19:12.443Z,958.12
2017-02-09T13:20:12.942Z,958.14
2017-02-09T13:21:12.072Z,958.14
2017-02-09T13:22:13.129Z,958.11
2017-02-09T13:23:12.376Z,958.15
2017-02-09T13:24:12.607Z,958.13
2017-02-09T13:25:13.880Z,958.12
2017-02-09T13:26:12.369Z,958.17
2017-02-09T13:27:14.803Z,958.18
2017-02-09T13:28:11.833Z,958.13
2017-02-09T13:29:12.206Z,958.14
2017-02-09T13:30:13.763Z,958.12
2017-02-09T13:31:12.254Z,958.15
2017-02-09T13:32:12.669Z,958.14
2017-02-09T13:33:14.791Z,958.09
2017-02-09T13:34:13.387Z,958.12
2017-02-09T13:35:10.274Z,958.05
2017-02-09T13:36:13.239Z,958.11
2017-02-09T13:37:13.000Z,958.11
2017-02-09T13:38:12.047Z,958.11
2017-02-09T13:39:11.808Z,958.06
2017-02-09T13:40:12.700Z,958.09
2017-02-09T13:41:12.553Z,958.08
2017-02-09T13:42:13.931Z,958.09
2017-02-09T13:43:12.901Z,958.13
2017-02-09T13:44:11.867Z,958.09
2017-02-09T13:45:12.341Z,958.14
2017-02-09T13:46:12.870Z,958.16
2017-02-09T13:47:12.481Z,958.12
2017-02-09T13:48:12.944Z,958.14
2017-02-09T13:49:11.760Z,958.17
2017-02-09T13:50:11.768Z,958.22
2017-02-09T13:51:12.650Z,958.21
2017-02-09T13:52:11.489Z,958.18
2017-02-09T13:53:13.172Z,958.13
2017-02-09T13:54:12.222Z,958.22
2017-02-09T13:55:13.172Z,958.22
2017-02-09T13:56:12.055Z,958.18
2017-02-09T13:57:12.946Z,958.24
2017-02-09T13:58:12.641Z,958.23
2017-02-09T13:59:13.032Z,958.19
2017-02-09T14:00:12.687Z,958.22
2017-02-09T14:01:12.386Z,958.18
2017-02-09T14:02:12.757Z,958.12
2017-02-09T14:03:12.412Z,958.16
2017-02-09T14:04:13.440Z,958.18
2017-02-09T14:05:12.812Z,958.13
2017-02-09T14:06:11.784Z,958.07
2017-02-09T14:07:12.820Z,958.07
2017-02-09T14:08:12.378Z,958.09
2017-02-09T14:09:12.865Z,958.06
2017-02-09T14:10:11.655Z,958.05
2017-02-09T14:11:14.948Z,958.09
2017-02-09T14:12:12.579Z,958.09
2017-02-09T14:13:12.949Z,958.07
2017-02-09T14:14:12.443Z,958.07
2017-02-09T14:15:12.565Z,958.13
2017-02-09T14:16:14.346Z,958.13
2017-02-09T14:17:15.567Z,958.10
2017-02-09T14:18:12.688Z,958.06
2017-02-09T14:19:12.681Z,958.08
2017-02-09T14:20:12.714Z,958.08
2017-02-09T14:21:14.603Z,958.09
2017-02-09T14:22:12.974Z,958.06
2017-02-09T14:23:11.774Z,958.02
2017-02-09T14:24:12.228Z,957.97
2017-02-09T14:25:12.082Z,958.01
2017-02-09T14:26:12.575Z,957.96
2017-02-09T14:27:13.533Z,958.00
2017-02-09T14:28:13.368Z,957.96
2017-02-09T14:29:12.939Z,957.95
2017-02-09T14:30:13.530Z,957.90
2017-02-09T14:31:14.107Z,957.88
2017-02-09T14:32:13.294Z,957.88
2017-02-09T14:33:10.483Z,957.90
2017-02-09T14:34:12.060Z,957.86
2017-02-09T14:35:12.040Z,957.92
2017-02-09T14:36:10.135Z,957.91
2017-02-09T14:37:11.164Z,957.96
2017-02-09T14:38:10.350Z,957.95
2017-02-09T14:39:12.221Z,957.92
2017-02-09T14:40:13.855Z,957.95
2017-02-09T14:41:12.716Z,957.92
2017-02-09T14:42:14.259Z,957.92
2017-02-09T14:43:12.090Z,957.92
2017-02-09T14:44:12.736Z,957.86
2017-02-09T14:45:12.429Z,957.86
2017-02-09T14:46:11.017Z,957.83
2017-02-09T14:47:13.722Z,957.89
2017-02-09T14:48:13.159Z,957.89
2017-02-09T14:49:12.811Z,957.87
2017-02-09T14:50:12.599Z,957.85
2017-02-09T14:51:14.150Z,957.86
2017-02-09T14:52:12.943Z,957.82
2017-02-09T14:53:12.423Z,957.85
2017-02-09T14:54:13.889Z,957.82
2017-02-09T14:55:12.516Z,957.83
2017-02-09T14:56:13.328Z,957.87
2017-02-09T14:57:12.399Z,957.86
2017-02-09T14:58:11.480Z,957.89
2017-02-09T14:59:13.553Z,957.85
2017-02-09T15:00:13.455Z,957.84
2017-02-09T15:01:12.431Z,957.85
2017-02-09T15:02:13.003Z,957.86
2017-02-09T15:03:11.965Z,957.80
2017-02-09T15:04:12.102Z,957.75
2017-02-09T15:05:14.134Z,957.73
2017-02-09T15:06:10.212Z,957.81
2017-02-09T15:07:12.758Z,957.78
2017-02-09T15:08:13.103Z,957.75
2017-02-09T15:09:12.740Z,957.80
2017-02-09T15:10:10.824Z,957.76
2017-02-09T15:11:11.713Z,957.72
2017-02-09T15:12:13.241Z,957.74
2017-02-09T15:13:13.793Z,957.77
2017-02-09T15:14:11.737Z,957.76
2017-02-09T15:15:12.333Z,957.72
2017-02-09T15:16:13.053Z,957.79
2017-02-09T15:17:11.838Z,957.73
2017-02-09T15:18:10.846Z,957.72
2017-02-09T15:19:12.444Z,957.71
2017-02-09T15:20:13.174Z,957.69
2017-02-09T15:21:13.035Z,957.67
2017-02-09T15:22:12.735Z,957.68
2017-02-09T15:23:12.820Z,957.69
2017-02-09T15:24:11.809Z,957.70
2017-02-09T15:25:12.650Z,957.69
2017-02-09T15:26:12.470Z,957.72
2017-02-09T15:27:12.411Z,957.68
2017-02-09T15:28:12.512Z,957.70
2017-02-09T15:29:13.995Z,957.69
2017-02-09T15:30:13.679Z,957.67
2017-02-09T15:31:12.962Z,957.67
2017-02-09T15:32:12.565Z,957.64
2017-02-09T15:33:12.409Z,957.66
2017-02-09T15:34:13.149Z,957.70
2017-02-09T15:35:19.543Z,957.68
2017-02-09T15:36:13.398Z,957.73
2017-02-09T15:37:12.237Z,957.70
2017-02-09T15:38:12.584Z,957.73
2017-02-09T15:39:12.922Z,957.74
2017-02-09T15:40:12.585Z,957.79
2017-02-09T15:41:10.729Z,957.79
2017-02-09T15:42:13.251Z,957.83
2017-02-09T15:43:13.342Z,957.75
2017-02-09T15:44:12.359Z,957.73
2017-02-09T15:45:12.360Z,957.76
2017-02-09T15:46:13.120Z,957.79
2017-02-09T15:47:12.763Z,957.75
2017-02-09T15:48:12.101Z,957.74
2017-02-09T15:49:13.301Z,957.78
2017-02-09T15:50:12.263Z,957.75
2017-02-09T15:51:12.848Z,957.77
2017-02-09T15:52:12.757Z,957.73
2017-02-09T15:53:13.513Z,957.73
2017-02-09T15:54:13.201Z,957.77
2017-02-09T15:55:12.884Z,957.70
2017-02-09T15:56:11.744Z,957.72
2017-02-09T15:57:12.612Z,957.71
2017-02-09T15:58:13.879Z,957.69
2017-02-09T15:59:13.512Z,957.62
2017-02-09T16:00:12.333Z,957.63
2017-02-09T16:01:12.946Z,957.70
2017-02-09T16:02:11.999Z,957.69
2017-02-09T16:03:12.605Z,957.65
2017-02-09T16:04:12.624Z,957.72
2017-02-09T16:05:15.393Z,957.70
2017-02-09T16:06:14.122Z,957.75
2017-02-09T16:07:12.824Z,957.73
2017-02-09T16:08:11.780Z,957.75
2017-02-09T16:09:12.348Z,957.69
2017-02-09T16:10:12.635Z,957.67
2017-02-09T16:11:12.522Z,957.66
2017-02-09T16:12:13.080Z,957.68
2017-02-09T16:13:12.837Z,957.69
2017-02-09T16:14:12.636Z,957.71
2017-02-09T16:15:12.593Z,957.73
2017-02-09T16:16:14.224Z,957.73
2017-02-09T16:17:13.114Z,957.70
2017-02-09T16:18:12.844Z,957.78
2017-02-09T16:19:12.337Z,957.80
2017-02-09T16:20:12.095Z,957.79
2017-02-09T16:21:12.827Z,957.75
2017-02-09T16:22:10.645Z,957.78
2017-02-09T16:23:13.108Z,957.80
2017-02-09T16:24:12.060Z,957.80
2017-02-09T16:25:12.207Z,957.79
2017-02-09T16:26:13.296Z,957.78
2017-02-09T16:27:12.784Z,957.83
2017-02-09T16:28:13.820Z,957.86
2017-02-09T16:29:12.250Z,957.86
2017-02-09T16:30:14.578Z,957.89
2017-02-09T16:31:14.333Z,957.87
2017-02-09T16:32:12.591Z,957.89
2017-02-09T16:33:14.013Z,957.88
2017-02-09T16:34:12.653Z,957.92
2017-02-09T16:35:12.733Z,957.91
2017-02-09T16:36:12.393Z,957.92
2017-02-09T16:37:13.112Z,957.93
2017-02-09T16:38:13.752Z,957.95
2017-02-09T16:39:11.676Z,957.91
2017-02-09T16:40:13.211Z,957.89
2017-02-09T16:41:12.081Z,957.89
2017-02-09T16:42:13.811Z,957.90
2017-02-09T16:43:11.645Z,957.86
2017-02-09T16:44:11.174Z,957.83
2017-02-09T16:45:12.939Z,957.88
2017-02-09T16:46:10.137Z,957.90
2017-02-09T16:47:12.077Z,957.87
2017-02-09T16:48:12.614Z,957.84
2017-02-09T16:49:13.243Z,957.87
2017-02-09T16:50:12.145Z,957.88
2017-02-09T16:51:12.805Z,957.90
2017-02-09T16:52:11.558Z,957.88
2017-02-09T16:53:12.439Z,957.85
2017-02-09T16:54:12.297Z,957.90
2017-02-09T16:55:12.190Z,957.93
2017-02-09T16:56:12.981Z,957.94
2017-02-09T16:57:12.432Z,957.93
2017-02-09T16:58:14.285Z,957.94
2017-02-09T16:59:12.791Z,957.99
2017-02-09T17:00:11.795Z,957.93
2017-02-09T17:01:13.635Z,957.99
2017-02-09T17:02:13.515Z,958.01
2017-02-09T17:03:12.497Z,957.99
2017-02-09T17:04:12.681Z,958.06
2017-02-09T17:05:12.538Z,958.01
2017-02-09T17:06:12.546Z,958.01
2017-02-09T17:07:12.626Z,958.03
2017-02-09T17:08:11.344Z,958.00
2017-02-09T17:09:13.663Z,958.03
2017-02-09T17:10:13.157Z,958.04
2017-02-09T17:11:12.114Z,958.01
2017-02-09T17:12:12.076Z,958.03
2017-02-09T17:13:12.428Z,958.01
2017-02-09T17:14:12.321Z,958.00
2017-02-09T17:15:10.984Z,958.02
2017-02-09T17:16:12.439Z,958.02
2017-02-09T17:17:13.246Z,957.98
2017-02-09T17:18:13.008Z,957.92
2017-02-09T17:19:12.616Z,957.99
2017-02-09T17:20:15.276Z,957.94
2017-02-09T17:21:12.259Z,957.93
2017-02-09T17:22:13.117Z,957.92
2017-02-09T17:23:12.672Z,957.91
2017-02-09T17:24:13.712Z,957.88
2017-02-09T17:25:13.160Z,957.88
2017-02-09T17:26:12.822Z,957.87
2017-02-09T17:27:11.831Z,957.88
2017-02-09T17:28:12.835Z,957.92
2017-02-09T17:29:12.369Z,957.88
2017-02-09T17:30:12.858Z,957.91
2017-02-09T17:31:11.778Z,957.87
2017-02-09T17:32:11.772Z,957.88
2017-02-09T17:33:11.737Z,957.87
2017-02-09T17:34:12.978Z,957.89
2017-02-09T17:35:13.666Z,957.85
2017-02-09T17:36:11.293Z,957.84
2017-02-09T17:37:10.933Z,957.86
2017-02-09T17:38:12.154Z,957.86
2017-02-09T17:39:12.073Z,957.89
2017-02-09T17:40:12.641Z,957.85
2017-02-09T17:41:12.608Z,957.89
2017-02-09T17:42:13.220Z,957.87
2017-02-09T17:43:13.843Z,957.84
2017-02-09T17:44:12.305Z,957.84
2017-02-09T17:45:12.598Z,957.86
2017-02-09T17:46:10.672Z,957.87
2017-02-09T17:47:12.551Z,957.83
2017-02-09T17:48:11.352Z,957.85
2017-02-09T17:49:10.422Z,957.82
2017-02-09T17:50:13.101Z,957.88
2017-02-09T17:51:12.820Z,957.87
2017-02-09T17:52:12.286Z,957.81
2017-02-09T17:53:12.778Z,957.80
2017-02-09T17:54:11.820Z,957.81
2017-02-09T17:55:12.414Z,957.80
2017-02-09T17:56:12.348Z,957.72
2017-02-09T17:57:11.149Z,957.75
2017-02-09T17:58:12.246Z,957.74
2017-02-09T17:59:12.136Z,957.72
2017-02-09T18:00:12.113Z,957.72
2017-02-09T18:01:12.830Z,957.72
2017-02-09T18:02:12.618Z,957.75
2017-02-09T18:03:12.607Z,957.69
2017-02-09T18:04:12.619Z,957.72
2017-02-09T18:05:13.320Z,957.67
2017-02-09T18:06:12.307Z,957.65
2017-02-09T18:07:14.022Z,957.68
2017-02-09T18:08:12.425Z,957.69
2017-02-09T18:09:12.898Z,957.69
2017-02-09T18:10:12.611Z,957.68
2017-02-09T18:11:12.583Z,957.65
2017-02-09T18:12:12.614Z,957.63
2017-02-09T18:13:13.383Z,957.66
2017-02-09T18:14:12.269Z,957.73
2017-02-09T18:15:13.763Z,957.67
2017-02-09T18:16:11.690Z,957.66
2017-02-09T18:17:15.345Z,957.70
2017-02-09T18:18:12.518Z,957.67
2017-02-09T18:19:13.139Z,957.65
2017-02-09T18:20:12.847Z,957.61
2017-02-09T18:21:12.085Z,957.65
2017-02-09T18:22:12.150Z,957.63
2017-02-09T18:23:12.141Z,957.66
2017-02-09T18:24:12.501Z,957.63
2017-02-09T18:25:14.543Z,957.60
2017-02-09T18:26:13.122Z,957.61
2017-02-09T18:27:13.638Z,957.60
2017-02-09T18:28:12.797Z,957.59
2017-02-09T18:29:11.597Z,957.56
2017-02-09T18:30:13.196Z,957.58
2017-02-09T18:31:12.071Z,957.54
2017-02-09T18:32:12.107Z,957.54
2017-02-09T18:33:12.587Z,957.49
2017-02-09T18:34:14.296Z,957.46
2017-02-09T18:35:12.811Z,957.45
2017-02-09T18:36:11.800Z,957.47
2017-02-09T18:37:13.421Z,957.47
2017-02-09T18:38:12.469Z,957.46
2017-02-09T18:39:13.290Z,957.46
2017-02-09T18:40:13.972Z,957.44
2017-02-09T18:41:12.668Z,957.41
2017-02-09T18:42:13.288Z,957.41
2017-02-09T18:43:12.855Z,957.38
2017-02-09T18:44:11.795Z,957.35
2017-02-09T18:45:12.440Z,957.35
2017-02-09T18:46:12.407Z,957.39
2017-02-09T18:47:12.422Z,957.38
2017-02-09T18:48:13.266Z,957.36
2017-02-09T18:49:12.248Z,957.33
2017-02-09T18:50:13.989Z,957.33
2017-02-09T18:51:12.100Z,957.33
2017-02-09T18:52:12.448Z,957.31
2017-02-09T18:53:14.109Z,957.33
2017-02-09T18:54:12.137Z,957.34
2017-02-09T18:55:13.136Z,957.34
2017-02-09T18:56:12.774Z,957.32
2017-02-09T18:57:12.614Z,957.33
2017-02-09T18:58:13.926Z,957.27
2017-02-09T18:59:15.370Z,957.29
2017-02-09T19:00:12.828Z,957.23
2017-02-09T19:01:11.699Z,957.28
2017-02-09T19:02:12.572Z,957.28
2017-02-09T19:03:13.202Z,957.25
2017-02-09T19:04:13.878Z,957.30
2017-02-09T19:05:12.662Z,957.28
2017-02-09T19:06:15.376Z,957.25
2017-02-09T19:07:12.880Z,957.29
2017-02-09T19:08:11.788Z,957.30
2017-02-09T19:09:12.564Z,957.30
2017-02-09T19:10:11.203Z,957.31
2017-02-09T19:11:12.983Z,957.27
2017-02-09T19:12:13.717Z,957.24
2017-02-09T19:13:11.290Z,957.27
2017-02-09T19:14:12.383Z,957.28
2017-02-09T19:15:12.849Z,957.26
2017-02-09T19:16:12.579Z,957.24
2017-02-09T19:17:13.701Z,957.24
2017-02-09T19:18:12.601Z,957.23
2017-02-09T19:19:13.464Z,957.23
2017-02-09T19:20:12.434Z,957.24
2017-02-09T19:21:13.142Z,957.21
2017-02-09T19:22:12.789Z,957.19
2017-02-09T19:23:11.607Z,957.14
2017-02-09T19:24:14.337Z,957.21
2017-02-09T19:25:12.874Z,957.18
2017-02-09T19:26:11.826Z,957.16
2017-02-09T19:27:12.502Z,957.14
2017-02-09T19:28:12.614Z,957.18
2017-02-09T19:29:14.539Z,957.15
2017-02-09T19:30:12.565Z,957.17
2017-02-09T19:31:13.402Z,957.17
2017-02-09T19:32:14.039Z,957.15
2017-02-09T19:33:12.791Z,957.17
2017-02-09T19:34:12.349Z,957.14
2017-02-09T19:35:12.756Z,957.14
2017-02-09T19:36:12.116Z,957.16
2017-02-09T19:37:12.474Z,957.17
2017-02-09T19:38:12.430Z,957.15
2017-02-09T19:39:12.989Z,957.13
2017-02-09T19:40:12.529Z,957.15
2017-02-09T19:41:14.125Z,957.10
2017-02-09T19:42:12.916Z,957.08
2017-02-09T19:43:14.742Z,957.11
2017-02-09T19:44:13.330Z,957.10
2017-02-09T19:45:10.407Z,957.10
2017-02-09T19:46:12.310Z,957.14
2017-02-09T19:47:12.600Z,957.10
2017-02-09T19:48:14.255Z,957.09
2017-02-09T19:49:12.859Z,957.10
2017-02-09T19:50:13.427Z,957.08
2017-02-09T19:51:12.471Z,957.10
2017-02-09T19:52:13.289Z,957.07
2017-02-09T19:53:13.806Z,957.10
2017-02-09T19:54:13.519Z,957.10
2017-02-09T19:55:13.256Z,957.07
2017-02-09T19:56:11.065Z,957.04
2017-02-09T19:57:11.899Z,957.11
2017-02-09T19:58:12.533Z,957.13
2017-02-09T19:59:12.610Z,957.06
2017-02-09T20:00:14.158Z,957.08
2017-02-09T20:01:12.797Z,957.06
2017-02-09T20:02:13.316Z,957.01
2017-02-09T20:03:12.968Z,957.01
2017-02-09T20:04:11.938Z,956.98
2017-02-09T20:05:11.776Z,956.96
2017-02-09T20:06:11.668Z,957.00
2017-02-09T20:07:13.206Z,956.94
2017-02-09T20:08:12.948Z,956.96
2017-02-09T20:09:12.095Z,956.93
2017-02-09T20:10:12.838Z,956.90
2017-02-09T20:11:12.950Z,956.95
2017-02-09T20:12:12.182Z,956.88
2017-02-09T20:13:13.264Z,956.89
2017-02-09T20:14:12.249Z,956.87
2017-02-09T20:15:13.163Z,956.90
2017-02-09T20:16:12.628Z,956.89
2017-02-09T20:17:12.648Z,956.90
2017-02-09T20:18:13.210Z,956.90
2017-02-09T20:19:12.741Z,956.90
2017-02-09T20:20:12.050Z,956.89
2017-02-09T20:21:14.659Z,956.91
2017-02-09T20:22:14.045Z,956.94
2017-02-09T20:23:13.479Z,956.86
2017-02-09T20:24:14.038Z,956.89
2017-02-09T20:25:12.439Z,956.84
2017-02-09T20:26:12.522Z,956.88
2017-02-09T20:27:13.426Z,956.88
2017-02-09T20:28:12.439Z,956.90
2017-02-09T20:29:13.056Z,956.86
2017-02-09T20:30:13.235Z,956.85
2017-02-09T20:31:12.698Z,956.86
2017-02-09T20:32:13.474Z,956.84
2017-02-09T20:33:13.159Z,956.83
2017-02-09T20:34:13.765Z,956.90
2017-02-09T20:35:12.565Z,956.89
2017-02-09T20:36:13.229Z,956.92
2017-02-09T20:37:12.213Z,956.92
2017-02-09T20:38:12.073Z,956.88
2017-02-09T20:39:12.036Z,956.84
2017-02-09T20:40:12.666Z,956.86
2017-02-09T20:41:13.355Z,956.86
2017-02-09T20:42:18.413Z,956.79
2017-02-09T20:43:12.385Z,956.78
2017-02-09T20:44:13.918Z,956.79
2017-02-09T20:45:13.549Z,956.73
2017-02-09T20:46:12.603Z,956.79
2017-02-09T20:47:13.455Z,956.75
2017-02-09T20:48:12.253Z,956.78
2017-02-09T20:49:12.246Z,956.75
2017-02-09T20:50:12.100Z,956.81
2017-02-09T20:51:12.194Z,956.77
2017-02-09T20:52:12.818Z,956.74
2017-02-09T20:53:11.783Z,956.76
2017-02-09T20:54:12.264Z,956.76
2017-02-09T20:55:18.428Z,956.80
2017-02-09T20:56:12.927Z,956.81